sensor_id;sensor_type;location;lat;lon;timestamp;pressure;altitude;pressure_sealevel;temperature;humidity
5126;BME280;2581;53.112;8.896;2022-08-19T00:00:29;;;;21.80;99.90
5126;BME280;2581;53.112;8.896;2022-08-19T00:02:55;;;;21.80;99.90
5126;BME280;2581;53.112;8.896;2022-08-19T00:05:22;;;;21.80;99.90
5126;BME280;2581;53.112;8.896;2022-08-19T00:07:48;;;;21.90;99.90
5126;BME280;2581;53.112;8.896;2022-08-19T00:10:15;;;;21.90;99.90
5126;BME280;2581;53.112;8.896;2022-08-19T00:12:41;;;;21.90;99.90
5126;BME280;2581;53.112;8.896;2022-08-19T00:15:17;;;;21.90;99.90
5126;BME280;2581;53.112;8.896;2022-08-19T00:17:44;;;;21.80;99.90
5126;BME280;2581;53.112;8.896;2022-08-19T00:20:18;;;;21.80;99.90
5126;BME280;2581;53.112;8.896;2022-08-19T00:22:45;;;;21.70;99.90
5126;BME280;2581;53.112;8.896;2022-08-19T00:25:12;;;;21.70;99.90
5126;BME280;2581;53.112;8.896;2022-08-19T00:27:38;;;;21.70;99.90
5126;BME280;2581;53.112;8.896;2022-08-19T00:30:06;;;;21.70;99.90
5126;BME280;2581;53.112;8.896;2022-08-19T00:32:32;;;;21.70;99.90
5126;BME280;2581;53.112;8.896;2022-08-19T00:34:59;;;;21.70;99.90
5126;BME280;2581;53.112;8.896;2022-08-19T00:37:26;;;;21.70;99.90
5126;BME280;2581;53.112;8.896;2022-08-19T00:39:52;;;;21.70;99.90
5126;BME280;2581;53.112;8.896;2022-08-19T00:42:20;;;;21.70;99.90
5126;BME280;2581;53.112;8.896;2022-08-19T00:44:46;;;;21.70;99.90
5126;BME280;2581;53.112;8.896;2022-08-19T00:47:12;;;;21.80;99.90
5126;BME280;2581;53.112;8.896;2022-08-19T00:49:43;;;;21.80;99.90
5126;BME280;2581;53.112;8.896;2022-08-19T00:52:18;;;;21.80;99.90
5126;BME280;2581;53.112;8.896;2022-08-19T00:54:45;;;;21.90;99.90
5126;BME280;2581;53.112;8.896;2022-08-19T00:57:16;;;;21.90;99.90
5126;BME280;2581;53.112;8.896;2022-08-19T00:59:44;;;;21.90;99.90
5126;BME280;2581;53.112;8.896;2022-08-19T01:02:11;;;;22.00;99.90
5126;BME280;2581;53.112;8.896;2022-08-19T01:04:37;;;;22.00;99.90
5126;BME280;2581;53.112;8.896;2022-08-19T01:07:03;;;;22.00;99.90
5126;BME280;2581;53.112;8.896;2022-08-19T01:09:29;;;;22.00;99.90
5126;BME280;2581;53.112;8.896;2022-08-19T01:11:56;;;;22.00;99.90
5126;BME280;2581;53.112;8.896;2022-08-19T01:14:23;;;;22.00;99.90
5126;BME280;2581;53.112;8.896;2022-08-19T01:16:56;;;;22.00;99.90
5126;BME280;2581;53.112;8.896;2022-08-19T01:19:37;;;;22.00;99.90
5126;BME280;2581;53.112;8.896;2022-08-19T01:22:15;;;;21.90;99.90
5126;BME280;2581;53.112;8.896;2022-08-19T01:24:42;;;;21.90;99.90
5126;BME280;2581;53.112;8.896;2022-08-19T01:27:08;;;;21.90;99.90
5126;BME280;2581;53.112;8.896;2022-08-19T01:29:38;;;;21.90;99.90
5126;BME280;2581;53.112;8.896;2022-08-19T01:32:04;;;;21.90;99.90
5126;BME280;2581;53.112;8.896;2022-08-19T01:34:31;;;;21.90;99.90
5126;BME280;2581;53.112;8.896;2022-08-19T01:36:57;;;;21.90;99.90
5126;BME280;2581;53.112;8.896;2022-08-19T01:39:24;;;;22.00;99.90
5126;BME280;2581;53.112;8.896;2022-08-19T01:41:51;;;;22.00;99.90
5126;BME280;2581;53.112;8.896;2022-08-19T01:44:20;;;;22.00;99.90
5126;BME280;2581;53.112;8.896;2022-08-19T01:46:49;;;;22.00;99.90
5126;BME280;2581;53.112;8.896;2022-08-19T01:49:17;;;;22.00;99.90
5126;BME280;2581;53.112;8.896;2022-08-19T01:51:43;;;;22.00;99.90
5126;BME280;2581;53.112;8.896;2022-08-19T01:54:11;;;;22.00;99.90
5126;BME280;2581;53.112;8.896;2022-08-19T01:56:36;;;;22.00;99.90
5126;BME280;2581;53.112;8.896;2022-08-19T01:59:06;;;;21.90;99.90
5126;BME280;2581;53.112;8.896;2022-08-19T02:01:33;;;;21.90;99.90
5126;BME280;2581;53.112;8.896;2022-08-19T02:03:59;;;;22.00;99.90
5126;BME280;2581;53.112;8.896;2022-08-19T02:06:28;;;;21.90;99.90
5126;BME280;2581;53.112;8.896;2022-08-19T02:08:55;;;;21.90;99.90
5126;BME280;2581;53.112;8.896;2022-08-19T02:11:24;;;;21.90;99.90
5126;BME280;2581;53.112;8.896;2022-08-19T02:13:52;;;;21.90;99.90
5126;BME280;2581;53.112;8.896;2022-08-19T02:16:25;;;;21.90;99.90
5126;BME280;2581;53.112;8.896;2022-08-19T02:18:51;;;;21.90;99.90
5126;BME280;2581;53.112;8.896;2022-08-19T02:21:18;;;;22.00;99.90
5126;BME280;2581;53.112;8.896;2022-08-19T02:23:45;;;;22.00;99.90
5126;BME280;2581;53.112;8.896;2022-08-19T02:26:11;;;;22.10;99.90
5126;BME280;2581;53.112;8.896;2022-08-19T02:28:38;;;;22.10;99.90
5126;BME280;2581;53.112;8.896;2022-08-19T02:31:09;;;;22.10;99.90
5126;BME280;2581;53.112;8.896;2022-08-19T02:33:35;;;;22.10;99.90
5126;BME280;2581;53.112;8.896;2022-08-19T02:36:04;;;;22.00;99.90
5126;BME280;2581;53.112;8.896;2022-08-19T02:38:30;;;;22.00;99.90
5126;BME280;2581;53.112;8.896;2022-08-19T02:41:01;;;;21.90;99.90
5126;BME280;2581;53.112;8.896;2022-08-19T02:43:28;;;;21.90;99.90
5126;BME280;2581;53.112;8.896;2022-08-19T02:45:55;;;;21.90;99.90
5126;BME280;2581;53.112;8.896;2022-08-19T02:48:22;;;;22.00;99.90
5126;BME280;2581;53.112;8.896;2022-08-19T02:50:49;;;;21.90;99.90
5126;BME280;2581;53.112;8.896;2022-08-19T02:53:25;;;;21.90;99.90
5126;BME280;2581;53.112;8.896;2022-08-19T02:55:52;;;;21.80;99.90
5126;BME280;2581;53.112;8.896;2022-08-19T02:58:18;;;;21.80;99.90
5126;BME280;2581;53.112;8.896;2022-08-19T03:00:51;;;;21.80;99.90
5126;BME280;2581;53.112;8.896;2022-08-19T03:03:17;;;;21.80;99.90
5126;BME280;2581;53.112;8.896;2022-08-19T03:05:44;;;;21.90;99.90
5126;BME280;2581;53.112;8.896;2022-08-19T03:08:11;;;;21.80;99.90
5126;BME280;2581;53.112;8.896;2022-08-19T03:10:43;;;;21.80;99.90
5126;BME280;2581;53.112;8.896;2022-08-19T03:13:15;;;;21.80;99.90
5126;BME280;2581;53.112;8.896;2022-08-19T03:15:43;;;;21.80;99.90
5126;BME280;2581;53.112;8.896;2022-08-19T03:18:09;;;;21.80;99.90
5126;BME280;2581;53.112;8.896;2022-08-19T03:20:41;;;;21.80;99.90
5126;BME280;2581;53.112;8.896;2022-08-19T03:23:07;;;;21.80;99.90
5126;BME280;2581;53.112;8.896;2022-08-19T03:25:37;;;;21.80;99.90
5126;BME280;2581;53.112;8.896;2022-08-19T03:28:04;;;;21.70;99.90
5126;BME280;2581;53.112;8.896;2022-08-19T03:30:29;;;;21.60;99.90
5126;BME280;2581;53.112;8.896;2022-08-19T03:32:55;;;;21.60;99.90
5126;BME280;2581;53.112;8.896;2022-08-19T03:35:20;;;;21.60;99.90
5126;BME280;2581;53.112;8.896;2022-08-19T03:37:46;;;;21.70;99.90
5126;BME280;2581;53.112;8.896;2022-08-19T03:40:12;;;;21.70;99.90
5126;BME280;2581;53.112;8.896;2022-08-19T03:42:37;;;;21.80;99.90
5126;BME280;2581;53.112;8.896;2022-08-19T03:45:03;;;;21.80;99.90
5126;BME280;2581;53.112;8.896;2022-08-19T03:47:29;;;;21.80;99.90
5126;BME280;2581;53.112;8.896;2022-08-19T03:49:55;;;;21.90;99.90
5126;BME280;2581;53.112;8.896;2022-08-19T03:52:21;;;;21.90;99.90
5126;BME280;2581;53.112;8.896;2022-08-19T03:54:47;;;;21.90;99.90
5126;BME280;2581;53.112;8.896;2022-08-19T03:57:12;;;;21.90;99.90
5126;BME280;2581;53.112;8.896;2022-08-19T03:59:38;;;;21.90;99.90
5126;BME280;2581;53.112;8.896;2022-08-19T04:02:08;;;;21.80;99.90
5126;BME280;2581;53.112;8.896;2022-08-19T04:04:35;;;;21.80;99.90
5126;BME280;2581;53.112;8.896;2022-08-19T04:07:02;;;;21.80;99.90
5126;BME280;2581;53.112;8.896;2022-08-19T04:09:27;;;;21.80;99.90
5126;BME280;2581;53.112;8.896;2022-08-19T04:11:56;;;;21.80;99.90
5126;BME280;2581;53.112;8.896;2022-08-19T04:14:28;;;;21.80;99.90
5126;BME280;2581;53.112;8.896;2022-08-19T04:16:58;;;;21.80;99.90
5126;BME280;2581;53.112;8.896;2022-08-19T04:19:25;;;;21.70;99.90
5126;BME280;2581;53.112;8.896;2022-08-19T04:21:53;;;;21.60;99.90
5126;BME280;2581;53.112;8.896;2022-08-19T04:24:20;;;;21.60;99.90
5126;BME280;2581;53.112;8.896;2022-08-19T04:26:46;;;;21.50;99.90
5126;BME280;2581;53.112;8.896;2022-08-19T04:29:16;;;;21.60;99.90
5126;BME280;2581;53.112;8.896;2022-08-19T04:31:43;;;;21.60;99.90
5126;BME280;2581;53.112;8.896;2022-08-19T04:34:11;;;;21.60;99.90
5126;BME280;2581;53.112;8.896;2022-08-19T04:36:39;;;;21.60;99.90
5126;BME280;2581;53.112;8.896;2022-08-19T04:39:16;;;;21.60;99.90
5126;BME280;2581;53.112;8.896;2022-08-19T04:41:44;;;;21.60;99.90
5126;BME280;2581;53.112;8.896;2022-08-19T04:44:29;;;;21.60;99.90
5126;BME280;2581;53.112;8.896;2022-08-19T04:46:56;;;;21.60;99.90
5126;BME280;2581;53.112;8.896;2022-08-19T04:49:22;;;;21.70;99.90
5126;BME280;2581;53.112;8.896;2022-08-19T04:51:50;;;;21.70;99.90
5126;BME280;2581;53.112;8.896;2022-08-19T04:54:19;;;;21.70;99.90
5126;BME280;2581;53.112;8.896;2022-08-19T04:56:49;;;;21.60;99.90
5126;BME280;2581;53.112;8.896;2022-08-19T04:59:16;;;;21.60;99.90
5126;BME280;2581;53.112;8.896;2022-08-19T05:01:44;;;;21.60;99.90
5126;BME280;2581;53.112;8.896;2022-08-19T05:04:19;;;;21.60;99.90
5126;BME280;2581;53.112;8.896;2022-08-19T05:06:47;;;;21.70;99.90
5126;BME280;2581;53.112;8.896;2022-08-19T05:09:14;;;;21.70;99.90
5126;BME280;2581;53.112;8.896;2022-08-19T05:11:41;;;;21.60;99.90
5126;BME280;2581;53.112;8.896;2022-08-19T05:14:07;;;;21.60;99.90
5126;BME280;2581;53.112;8.896;2022-08-19T05:16:40;;;;21.70;99.90
5126;BME280;2581;53.112;8.896;2022-08-19T05:19:06;;;;21.70;99.90
5126;BME280;2581;53.112;8.896;2022-08-19T05:21:50;;;;21.70;99.90
5126;BME280;2581;53.112;8.896;2022-08-19T05:24:34;;;;21.80;99.90
5126;BME280;2581;53.112;8.896;2022-08-19T05:27:01;;;;21.80;99.90
5126;BME280;2581;53.112;8.896;2022-08-19T05:29:29;;;;21.90;99.90
5126;BME280;2581;53.112;8.896;2022-08-19T05:31:55;;;;21.90;99.90
5126;BME280;2581;53.112;8.896;2022-08-19T05:34:22;;;;21.90;99.90
5126;BME280;2581;53.112;8.896;2022-08-19T05:36:56;;;;21.80;99.90
5126;BME280;2581;53.112;8.896;2022-08-19T05:39:27;;;;21.80;99.90
5126;BME280;2581;53.112;8.896;2022-08-19T05:41:58;;;;21.80;99.90
5126;BME280;2581;53.112;8.896;2022-08-19T05:44:26;;;;21.80;99.90
5126;BME280;2581;53.112;8.896;2022-08-19T05:46:52;;;;21.80;99.90
5126;BME280;2581;53.112;8.896;2022-08-19T05:49:20;;;;21.80;99.90
5126;BME280;2581;53.112;8.896;2022-08-19T05:51:46;;;;21.90;99.90
5126;BME280;2581;53.112;8.896;2022-08-19T05:54:12;;;;21.90;99.90
5126;BME280;2581;53.112;8.896;2022-08-19T05:56:40;;;;22.00;99.90
5126;BME280;2581;53.112;8.896;2022-08-19T05:59:08;;;;22.00;99.90
5126;BME280;2581;53.112;8.896;2022-08-19T06:01:34;;;;21.90;99.90
5126;BME280;2581;53.112;8.896;2022-08-19T06:04:00;;;;21.90;99.90
5126;BME280;2581;53.112;8.896;2022-08-19T06:06:26;;;;21.80;99.90
5126;BME280;2581;53.112;8.896;2022-08-19T06:08:52;;;;21.80;99.90
5126;BME280;2581;53.112;8.896;2022-08-19T06:11:21;;;;21.80;99.90
5126;BME280;2581;53.112;8.896;2022-08-19T06:13:49;;;;21.80;99.90
5126;BME280;2581;53.112;8.896;2022-08-19T06:16:21;;;;21.80;99.90
5126;BME280;2581;53.112;8.896;2022-08-19T06:18:51;;;;21.80;99.90
5126;BME280;2581;53.112;8.896;2022-08-19T06:21:21;;;;21.80;99.90
5126;BME280;2581;53.112;8.896;2022-08-19T06:23:48;;;;21.90;99.90
5126;BME280;2581;53.112;8.896;2022-08-19T06:26:16;;;;21.90;99.90
5126;BME280;2581;53.112;8.896;2022-08-19T06:28:41;;;;21.90;99.90
5126;BME280;2581;53.112;8.896;2022-08-19T06:31:10;;;;22.00;99.90
5126;BME280;2581;53.112;8.896;2022-08-19T06:33:37;;;;22.00;99.90
5126;BME280;2581;53.112;8.896;2022-08-19T06:36:04;;;;22.00;99.90
5126;BME280;2581;53.112;8.896;2022-08-19T06:38:30;;;;22.00;99.90
5126;BME280;2581;53.112;8.896;2022-08-19T06:41:05;;;;22.00;99.90
5126;BME280;2581;53.112;8.896;2022-08-19T06:43:31;;;;22.00;99.90
5126;BME280;2581;53.112;8.896;2022-08-19T06:45:57;;;;22.10;99.90
5126;BME280;2581;53.112;8.896;2022-08-19T06:48:24;;;;22.10;99.90
5126;BME280;2581;53.112;8.896;2022-08-19T06:50:50;;;;22.10;99.90
5126;BME280;2581;53.112;8.896;2022-08-19T06:53:17;;;;22.10;99.90
5126;BME280;2581;53.112;8.896;2022-08-19T06:55:45;;;;22.10;99.90
5126;BME280;2581;53.112;8.896;2022-08-19T06:58:10;;;;22.20;99.90
5126;BME280;2581;53.112;8.896;2022-08-19T07:00:37;;;;22.30;99.90
5126;BME280;2581;53.112;8.896;2022-08-19T07:03:03;;;;22.30;99.90
5126;BME280;2581;53.112;8.896;2022-08-19T07:05:28;;;;22.40;99.90
5126;BME280;2581;53.112;8.896;2022-08-19T07:07:54;;;;22.40;99.90
5126;BME280;2581;53.112;8.896;2022-08-19T07:10:20;;;;22.40;99.90
5126;BME280;2581;53.112;8.896;2022-08-19T07:12:46;;;;22.40;99.90
5126;BME280;2581;53.112;8.896;2022-08-19T07:15:13;;;;22.30;99.90
5126;BME280;2581;53.112;8.896;2022-08-19T07:17:38;;;;22.20;99.90
5126;BME280;2581;53.112;8.896;2022-08-19T07:20:06;;;;22.20;99.90
5126;BME280;2581;53.112;8.896;2022-08-19T07:22:37;;;;22.30;99.90
5126;BME280;2581;53.112;8.896;2022-08-19T07:25:03;;;;22.40;99.90
5126;BME280;2581;53.112;8.896;2022-08-19T07:27:30;;;;22.50;99.90
5126;BME280;2581;53.112;8.896;2022-08-19T07:29:56;;;;22.50;99.90
5126;BME280;2581;53.112;8.896;2022-08-19T07:32:22;;;;22.40;99.90
5126;BME280;2581;53.112;8.896;2022-08-19T07:34:48;;;;22.40;99.90
5126;BME280;2581;53.112;8.896;2022-08-19T07:37:13;;;;22.50;99.90
5126;BME280;2581;53.112;8.896;2022-08-19T07:39:39;;;;22.60;99.90
5126;BME280;2581;53.112;8.896;2022-08-19T07:42:09;;;;22.70;99.90
5126;BME280;2581;53.112;8.896;2022-08-19T07:44:36;;;;22.80;99.90
5126;BME280;2581;53.112;8.896;2022-08-19T07:47:03;;;;22.90;99.90
5126;BME280;2581;53.112;8.896;2022-08-19T07:49:28;;;;23.00;99.90
5126;BME280;2581;53.112;8.896;2022-08-19T07:51:59;;;;23.00;99.90
5126;BME280;2581;53.112;8.896;2022-08-19T07:54:28;;;;23.10;99.90
5126;BME280;2581;53.112;8.896;2022-08-19T07:56:54;;;;23.10;99.90
5126;BME280;2581;53.112;8.896;2022-08-19T07:59:20;;;;23.10;99.90
5126;BME280;2581;53.112;8.896;2022-08-19T08:01:47;;;;23.30;99.90
5126;BME280;2581;53.112;8.896;2022-08-19T08:04:13;;;;23.30;99.90
5126;BME280;2581;53.112;8.896;2022-08-19T08:06:57;;;;23.40;99.90
5126;BME280;2581;53.112;8.896;2022-08-19T08:09:43;;;;23.40;99.90
5126;BME280;2581;53.112;8.896;2022-08-19T08:12:16;;;;23.50;99.90
5126;BME280;2581;53.112;8.896;2022-08-19T08:14:49;;;;23.40;99.90
5126;BME280;2581;53.112;8.896;2022-08-19T08:17:17;;;;23.40;99.90
5126;BME280;2581;53.112;8.896;2022-08-19T08:19:43;;;;23.50;99.90
5126;BME280;2581;53.112;8.896;2022-08-19T08:22:11;;;;23.60;99.90
5126;BME280;2581;53.112;8.896;2022-08-19T08:25:01;;;;23.70;99.90
5126;BME280;2581;53.112;8.896;2022-08-19T08:27:27;;;;23.80;99.90
5126;BME280;2581;53.112;8.896;2022-08-19T08:29:54;;;;23.90;99.90
5126;BME280;2581;53.112;8.896;2022-08-19T08:32:20;;;;23.90;99.90
5126;BME280;2581;53.112;8.896;2022-08-19T08:34:46;;;;24.00;99.90
5126;BME280;2581;53.112;8.896;2022-08-19T08:37:11;;;;24.10;99.90
5126;BME280;2581;53.112;8.896;2022-08-19T08:39:37;;;;24.20;99.90
5126;BME280;2581;53.112;8.896;2022-08-19T08:45:13;;;;24.20;99.90
5126;BME280;2581;53.112;8.896;2022-08-19T08:47:44;;;;24.20;99.90
5126;BME280;2581;53.112;8.896;2022-08-19T08:50:34;;;;24.30;99.90
5126;BME280;2581;53.112;8.896;2022-08-19T08:53:02;;;;24.30;99.90
5126;BME280;2581;53.112;8.896;2022-08-19T08:55:31;;;;24.40;99.90
5126;BME280;2581;53.112;8.896;2022-08-19T08:58:12;;;;24.40;99.90
5126;BME280;2581;53.112;8.896;2022-08-19T09:00:45;;;;24.40;99.90
5126;BME280;2581;53.112;8.896;2022-08-19T09:03:22;;;;24.50;99.90
5126;BME280;2581;53.112;8.896;2022-08-19T09:08:59;;;;24.60;99.90
5126;BME280;2581;53.112;8.896;2022-08-19T09:16:58;;;;24.50;99.90
5126;BME280;2581;53.112;8.896;2022-08-19T09:19:25;;;;24.50;99.90
5126;BME280;2581;53.112;8.896;2022-08-19T09:21:50;;;;24.50;99.90
5126;BME280;2581;53.112;8.896;2022-08-19T09:24:16;;;;24.60;99.90
5126;BME280;2581;53.112;8.896;2022-08-19T09:26:42;;;;24.60;99.90
5126;BME280;2581;53.112;8.896;2022-08-19T09:29:09;;;;24.70;99.90
5126;BME280;2581;53.112;8.896;2022-08-19T09:31:35;;;;24.70;99.90
5126;BME280;2581;53.112;8.896;2022-08-19T09:34:01;;;;24.80;99.90
5126;BME280;2581;53.112;8.896;2022-08-19T09:36:30;;;;24.90;99.90
5126;BME280;2581;53.112;8.896;2022-08-19T09:39:05;;;;24.90;99.90
5126;BME280;2581;53.112;8.896;2022-08-19T09:41:31;;;;24.70;99.90
5126;BME280;2581;53.112;8.896;2022-08-19T09:43:58;;;;24.70;99.90
5126;BME280;2581;53.112;8.896;2022-08-19T09:46:26;;;;24.80;99.90
5126;BME280;2581;53.112;8.896;2022-08-19T09:48:52;;;;24.70;99.90
5126;BME280;2581;53.112;8.896;2022-08-19T09:51:23;;;;24.80;99.90
5126;BME280;2581;53.112;8.896;2022-08-19T09:53:50;;;;24.80;99.90
5126;BME280;2581;53.112;8.896;2022-08-19T09:56:18;;;;25.00;99.90
5126;BME280;2581;53.112;8.896;2022-08-19T09:58:44;;;;25.00;99.90
5126;BME280;2581;53.112;8.896;2022-08-19T10:01:19;;;;24.90;99.90
5126;BME280;2581;53.112;8.896;2022-08-19T10:03:48;;;;25.00;99.90
5126;BME280;2581;53.112;8.896;2022-08-19T10:06:15;;;;25.10;99.90
5126;BME280;2581;53.112;8.896;2022-08-19T10:08:41;;;;25.30;99.90
5126;BME280;2581;53.112;8.896;2022-08-19T10:11:06;;;;25.40;99.90
5126;BME280;2581;53.112;8.896;2022-08-19T10:13:34;;;;25.60;99.90
5126;BME280;2581;53.112;8.896;2022-08-19T10:16:08;;;;25.70;99.90
5126;BME280;2581;53.112;8.896;2022-08-19T10:18:35;;;;25.80;99.90
5126;BME280;2581;53.112;8.896;2022-08-19T10:21:07;;;;26.00;99.90
5126;BME280;2581;53.112;8.896;2022-08-19T10:23:38;;;;26.00;99.90
5126;BME280;2581;53.112;8.896;2022-08-19T10:26:05;;;;26.10;99.90
5126;BME280;2581;53.112;8.896;2022-08-19T10:28:35;;;;26.20;99.90
5126;BME280;2581;53.112;8.896;2022-08-19T10:31:10;;;;26.30;99.90
5126;BME280;2581;53.112;8.896;2022-08-19T10:33:37;;;;26.40;99.90
5126;BME280;2581;53.112;8.896;2022-08-19T10:36:05;;;;26.40;99.90
5126;BME280;2581;53.112;8.896;2022-08-19T10:38:32;;;;26.60;99.90
5126;BME280;2581;53.112;8.896;2022-08-19T10:41:07;;;;26.70;99.90
5126;BME280;2581;53.112;8.896;2022-08-19T10:43:33;;;;26.80;99.90
5126;BME280;2581;53.112;8.896;2022-08-19T10:46:01;;;;26.90;99.90
5126;BME280;2581;53.112;8.896;2022-08-19T10:48:27;;;;27.00;99.90
5126;BME280;2581;53.112;8.896;2022-08-19T10:50:52;;;;27.10;99.90
5126;BME280;2581;53.112;8.896;2022-08-19T10:53:36;;;;27.20;99.90
5126;BME280;2581;53.112;8.896;2022-08-19T10:56:02;;;;27.30;99.90
5126;BME280;2581;53.112;8.896;2022-08-19T10:58:47;;;;27.40;99.90
5126;BME280;2581;53.112;8.896;2022-08-19T11:01:13;;;;27.60;99.90
5126;BME280;2581;53.112;8.896;2022-08-19T11:03:39;;;;27.70;99.90
5126;BME280;2581;53.112;8.896;2022-08-19T11:06:08;;;;27.80;99.90
5126;BME280;2581;53.112;8.896;2022-08-19T11:08:40;;;;27.80;99.90
5126;BME280;2581;53.112;8.896;2022-08-19T11:11:08;;;;28.00;99.90
5126;BME280;2581;53.112;8.896;2022-08-19T11:13:36;;;;28.10;99.90
5126;BME280;2581;53.112;8.896;2022-08-19T11:16:04;;;;28.30;99.90
5126;BME280;2581;53.112;8.896;2022-08-19T11:18:30;;;;28.40;99.90
5126;BME280;2581;53.112;8.896;2022-08-19T11:21:08;;;;28.50;99.90
5126;BME280;2581;53.112;8.896;2022-08-19T11:23:33;;;;28.50;99.90
5126;BME280;2581;53.112;8.896;2022-08-19T11:25:59;;;;28.40;99.90
5126;BME280;2581;53.112;8.896;2022-08-19T11:28:26;;;;28.50;99.90
5126;BME280;2581;53.112;8.896;2022-08-19T11:30:52;;;;28.60;99.90
5126;BME280;2581;53.112;8.896;2022-08-19T11:33:17;;;;28.80;99.90
5126;BME280;2581;53.112;8.896;2022-08-19T11:35:44;;;;29.10;99.90
5126;BME280;2581;53.112;8.896;2022-08-19T11:38:10;;;;29.20;99.90
5126;BME280;2581;53.112;8.896;2022-08-19T11:40:37;;;;29.40;99.90
5126;BME280;2581;53.112;8.896;2022-08-19T11:43:03;;;;29.60;99.90
5126;BME280;2581;53.112;8.896;2022-08-19T11:45:30;;;;29.70;99.90
5126;BME280;2581;53.112;8.896;2022-08-19T11:47:56;;;;29.90;99.90
5126;BME280;2581;53.112;8.896;2022-08-19T11:50:24;;;;30.00;99.90
5126;BME280;2581;53.112;8.896;2022-08-19T11:52:53;;;;30.20;99.90
5126;BME280;2581;53.112;8.896;2022-08-19T11:55:19;;;;30.30;99.90
5126;BME280;2581;53.112;8.896;2022-08-19T11:57:45;;;;30.00;99.90
5126;BME280;2581;53.112;8.896;2022-08-19T12:00:12;;;;30.00;99.90
5126;BME280;2581;53.112;8.896;2022-08-19T12:02:39;;;;29.90;99.90
5126;BME280;2581;53.112;8.896;2022-08-19T12:05:05;;;;30.00;99.90
5126;BME280;2581;53.112;8.896;2022-08-19T12:07:32;;;;30.10;99.90
5126;BME280;2581;53.112;8.896;2022-08-19T12:09:58;;;;30.30;99.90
5126;BME280;2581;53.112;8.896;2022-08-19T12:12:24;;;;30.40;99.90
5126;BME280;2581;53.112;8.896;2022-08-19T12:14:52;;;;30.60;99.90
5126;BME280;2581;53.112;8.896;2022-08-19T12:17:23;;;;30.80;99.90
5126;BME280;2581;53.112;8.896;2022-08-19T12:19:49;;;;30.90;99.90
5126;BME280;2581;53.112;8.896;2022-08-19T12:22:14;;;;30.90;99.00
5126;BME280;2581;53.112;8.896;2022-08-19T12:24:40;;;;31.00;99.60
5126;BME280;2581;53.112;8.896;2022-08-19T12:27:06;;;;31.20;98.90
5126;BME280;2581;53.112;8.896;2022-08-19T12:29:31;;;;31.40;98.40
5126;BME280;2581;53.112;8.896;2022-08-19T12:31:58;;;;31.50;97.40
5126;BME280;2581;53.112;8.896;2022-08-19T12:34:31;;;;31.60;97.20
5126;BME280;2581;53.112;8.896;2022-08-19T12:37:00;;;;31.60;97.30
5126;BME280;2581;53.112;8.896;2022-08-19T12:39:26;;;;31.80;96.40
5126;BME280;2581;53.112;8.896;2022-08-19T12:41:52;;;;31.90;96.80
5126;BME280;2581;53.112;8.896;2022-08-19T12:44:19;;;;31.90;95.60
5126;BME280;2581;53.112;8.896;2022-08-19T12:46:44;;;;32.20;95.50
5126;BME280;2581;53.112;8.896;2022-08-19T12:49:10;;;;32.20;95.40
5126;BME280;2581;53.112;8.896;2022-08-19T12:51:36;;;;32.30;93.90
5126;BME280;2581;53.112;8.896;2022-08-19T12:54:02;;;;32.30;94.10
5126;BME280;2581;53.112;8.896;2022-08-19T12:56:27;;;;32.40;94.30
5126;BME280;2581;53.112;8.896;2022-08-19T12:58:53;;;;32.50;92.40
5126;BME280;2581;53.112;8.896;2022-08-19T13:01:20;;;;32.70;93.60
5126;BME280;2581;53.112;8.896;2022-08-19T13:03:46;;;;32.80;94.60
5126;BME280;2581;53.112;8.896;2022-08-19T13:06:12;;;;32.90;92.70
5126;BME280;2581;53.112;8.896;2022-08-19T13:08:38;;;;33.00;91.50
5126;BME280;2581;53.112;8.896;2022-08-19T13:11:22;;;;32.90;92.10
5126;BME280;2581;53.112;8.896;2022-08-19T13:13:50;;;;32.90;92.40
5126;BME280;2581;53.112;8.896;2022-08-19T13:16:17;;;;32.90;91.90
5126;BME280;2581;53.112;8.896;2022-08-19T13:18:45;;;;32.90;92.10
5126;BME280;2581;53.112;8.896;2022-08-19T13:21:13;;;;32.90;92.00
5126;BME280;2581;53.112;8.896;2022-08-19T13:23:40;;;;33.00;91.80
5126;BME280;2581;53.112;8.896;2022-08-19T13:26:07;;;;33.10;89.90
5126;BME280;2581;53.112;8.896;2022-08-19T13:28:34;;;;33.20;90.00
5126;BME280;2581;53.112;8.896;2022-08-19T13:31:21;;;;33.10;88.10
5126;BME280;2581;53.112;8.896;2022-08-19T13:34:06;;;;33.10;87.40
5126;BME280;2581;53.112;8.896;2022-08-19T13:36:36;;;;33.10;86.60
5126;BME280;2581;53.112;8.896;2022-08-19T13:39:03;;;;33.10;84.80
5126;BME280;2581;53.112;8.896;2022-08-19T13:41:29;;;;33.00;83.00
5126;BME280;2581;53.112;8.896;2022-08-19T13:43:55;;;;33.00;84.10
5126;BME280;2581;53.112;8.896;2022-08-19T13:46:20;;;;33.00;81.70
5126;BME280;2581;53.112;8.896;2022-08-19T13:48:47;;;;33.10;76.70
5126;BME280;2581;53.112;8.896;2022-08-19T13:51:16;;;;33.10;74.60
5126;BME280;2581;53.112;8.896;2022-08-19T13:53:43;;;;33.10;71.00
5126;BME280;2581;53.112;8.896;2022-08-19T13:56:12;;;;33.10;68.60
5126;BME280;2581;53.112;8.896;2022-08-19T13:58:38;;;;33.10;69.10
5126;BME280;2581;53.112;8.896;2022-08-19T14:01:05;;;;33.00;68.90
5126;BME280;2581;53.112;8.896;2022-08-19T14:03:32;;;;33.10;70.30
5126;BME280;2581;53.112;8.896;2022-08-19T14:05:58;;;;33.30;71.60
5126;BME280;2581;53.112;8.896;2022-08-19T14:08:25;;;;33.40;69.70
5126;BME280;2581;53.112;8.896;2022-08-19T14:10:51;;;;33.40;67.90
5126;BME280;2581;53.112;8.896;2022-08-19T14:13:19;;;;33.40;69.00
5126;BME280;2581;53.112;8.896;2022-08-19T14:15:45;;;;33.40;68.40
5126;BME280;2581;53.112;8.896;2022-08-19T14:18:11;;;;33.30;69.40
5126;BME280;2581;53.112;8.896;2022-08-19T14:20:37;;;;33.30;68.80
5126;BME280;2581;53.112;8.896;2022-08-19T14:23:03;;;;33.30;69.70
5126;BME280;2581;53.112;8.896;2022-08-19T14:25:31;;;;33.30;68.50
5126;BME280;2581;53.112;8.896;2022-08-19T14:27:58;;;;33.40;69.50
5126;BME280;2581;53.112;8.896;2022-08-19T14:30:34;;;;33.50;68.90
5126;BME280;2581;53.112;8.896;2022-08-19T14:33:02;;;;33.50;69.60
5126;BME280;2581;53.112;8.896;2022-08-19T14:35:29;;;;33.60;71.60
5126;BME280;2581;53.112;8.896;2022-08-19T14:37:57;;;;33.60;70.60
5126;BME280;2581;53.112;8.896;2022-08-19T14:40:26;;;;33.60;70.20
5126;BME280;2581;53.112;8.896;2022-08-19T14:43:00;;;;33.70;70.90
5126;BME280;2581;53.112;8.896;2022-08-19T14:45:30;;;;33.70;70.10
5126;BME280;2581;53.112;8.896;2022-08-19T14:47:56;;;;33.60;70.20
5126;BME280;2581;53.112;8.896;2022-08-19T14:50:22;;;;33.60;72.00
5126;BME280;2581;53.112;8.896;2022-08-19T14:52:48;;;;33.60;73.00
5126;BME280;2581;53.112;8.896;2022-08-19T14:55:16;;;;33.60;72.30
5126;BME280;2581;53.112;8.896;2022-08-19T14:57:42;;;;33.60;70.50
5126;BME280;2581;53.112;8.896;2022-08-19T15:00:14;;;;33.60;70.90
5126;BME280;2581;53.112;8.896;2022-08-19T15:02:41;;;;33.60;72.20
5126;BME280;2581;53.112;8.896;2022-08-19T15:05:09;;;;33.60;72.40
5126;BME280;2581;53.112;8.896;2022-08-19T15:07:35;;;;33.60;71.40
5126;BME280;2581;53.112;8.896;2022-08-19T15:10:01;;;;33.60;70.30
5126;BME280;2581;53.112;8.896;2022-08-19T15:12:26;;;;33.50;71.10
5126;BME280;63008;53.112;8.896;2022-08-19T18:35:20;101238.53;;;23.91;44.69
5126;BME280;63008;53.112;8.896;2022-08-19T18:37:46;101241.00;;;23.82;44.96